sensor_id;sensor_type;location;lat;lon;timestamp;pressure;altitude;pressure_sealevel;temperature;humidity
64294;BME280;50636;45.596;5.258;2023-04-01T00:01:32;98359.84;;;13.79;55.67
64294;BME280;50636;45.596;5.258;2023-04-01T00:03:57;98371.97;;;13.80;55.21
64294;BME280;50636;45.596;5.258;2023-04-01T00:06:23;98367.06;;;13.72;54.71
64294;BME280;50636;45.596;5.258;2023-04-01T00:08:49;98357.19;;;13.67;54.76
64294;BME280;50636;45.596;5.258;2023-04-01T00:11:15;98349.06;;;13.57;54.07
64294;BME280;50636;45.596;5.258;2023-04-01T00:13:41;98345.94;;;13.36;54.04
64294;BME280;50636;45.596;5.258;2023-04-01T00:16:08;98352.97;;;13.24;54.65
64294;BME280;50636;45.596;5.258;2023-04-01T00:18:33;98350.09;;;13.14;54.48
64294;BME280;50636;45.596;5.258;2023-04-01T00:20:59;98341.69;;;13.05;55.08
64294;BME280;50636;45.596;5.258;2023-04-01T00:23:25;98356.56;;;12.99;55.73
64294;BME280;50636;45.596;5.258;2023-04-01T00:25:50;98354.59;;;12.95;55.72
64294;BME280;50636;45.596;5.258;2023-04-01T00:28:18;98354.44;;;12.78;55.79
64294;BME280;50636;45.596;5.258;2023-04-01T00:30:44;98356.63;;;12.63;55.20
64294;BME280;50636;45.596;5.258;2023-04-01T00:33:10;98351.88;;;12.53;55.68
64294;BME280;50636;45.596;5.258;2023-04-01T00:35:36;98350.34;;;12.45;55.34
64294;BME280;50636;45.596;5.258;2023-04-01T00:38:05;98343.94;;;12.41;55.80
64294;BME280;50636;45.596;5.258;2023-04-01T00:40:41;98348.31;;;12.47;56.97
64294;BME280;50636;45.596;5.258;2023-04-01T00:43:16;98347.19;;;12.73;56.91
64294;BME280;50636;45.596;5.258;2023-04-01T00:45:44;98352.00;;;12.76;56.69
64294;BME280;50636;45.596;5.258;2023-04-01T00:50:40;98338.06;;;12.57;57.50
64294;BME280;50636;45.596;5.258;2023-04-01T00:53:08;98337.06;;;12.40;58.01
64294;BME280;50636;45.596;5.258;2023-04-01T00:55:37;98332.28;;;12.67;58.06
64294;BME280;50636;45.596;5.258;2023-04-01T00:58:07;98334.53;;;13.24;57.17
64294;BME280;50636;45.596;5.258;2023-04-01T01:00:37;98334.50;;;13.66;55.55
64294;BME280;50636;45.596;5.258;2023-04-01T01:03:03;98331.63;;;13.91;54.72
64294;BME280;50636;45.596;5.258;2023-04-01T01:08:44;98333.34;;;13.74;53.47
64294;BME280;50636;45.596;5.258;2023-04-01T01:11:14;98337.94;;;13.55;54.01
64294;BME280;50636;45.596;5.258;2023-04-01T01:14:20;98332.63;;;13.31;54.57
64294;BME280;50636;45.596;5.258;2023-04-01T01:16:51;98332.78;;;13.06;55.08
64294;BME280;50636;45.596;5.258;2023-04-01T01:25:22;98328.97;;;13.02;55.22
64294;BME280;50636;45.596;5.258;2023-04-01T01:30:43;98318.66;;;13.78;53.96
64294;BME280;50636;45.596;5.258;2023-04-01T01:33:35;98309.16;;;14.01;52.58
64294;BME280;50636;45.596;5.258;2023-04-01T01:36:12;98307.88;;;14.03;52.56
64294;BME280;50636;45.596;5.258;2023-04-01T01:38:39;98312.44;;;14.19;51.70
64294;BME280;50636;45.596;5.258;2023-04-01T01:41:07;98311.41;;;14.21;50.79
64294;BME280;50636;45.596;5.258;2023-04-01T01:43:37;98315.44;;;14.11;50.60
64294;BME280;50636;45.596;5.258;2023-04-01T01:46:09;98309.94;;;14.13;50.42
64294;BME280;50636;45.596;5.258;2023-04-01T01:48:37;98301.53;;;14.04;50.54
64294;BME280;50636;45.596;5.258;2023-04-01T01:51:06;98293.31;;;13.89;51.32
64294;BME280;50636;45.596;5.258;2023-04-01T01:53:31;98297.34;;;13.79;51.33
64294;BME280;50636;45.596;5.258;2023-04-01T01:55:57;98301.81;;;13.67;50.94
64294;BME280;50636;45.596;5.258;2023-04-01T02:00:58;98298.16;;;13.56;51.90
64294;BME280;50636;45.596;5.258;2023-04-01T02:03:27;98285.19;;;13.78;51.32
64294;BME280;50636;45.596;5.258;2023-04-01T02:05:56;98288.28;;;13.87;51.07
64294;BME280;50636;45.596;5.258;2023-04-01T02:10:58;98297.97;;;13.28;52.10
64294;BME280;50636;45.596;5.258;2023-04-01T02:13:35;98297.66;;;12.82;53.56
64294;BME280;50636;45.596;5.258;2023-04-01T02:16:13;98300.97;;;12.89;54.64
64294;BME280;50636;45.596;5.258;2023-04-01T02:18:40;98288.53;;;12.96;54.48
64294;BME280;50636;45.596;5.258;2023-04-01T02:21:07;98289.31;;;12.97;54.45
64294;BME280;50636;45.596;5.258;2023-04-01T02:23:35;98289.59;;;12.77;55.18
64294;BME280;50636;45.596;5.258;2023-04-01T02:26:05;98292.47;;;12.75;55.52
64294;BME280;50636;45.596;5.258;2023-04-01T02:28:33;98295.59;;;12.84;55.26
64294;BME280;50636;45.596;5.258;2023-04-01T02:31:00;98290.44;;;12.89;54.62
64294;BME280;50636;45.596;5.258;2023-04-01T02:33:28;98275.69;;;12.88;54.17
64294;BME280;50636;45.596;5.258;2023-04-01T02:35:54;98270.31;;;12.95;53.98
64294;BME280;50636;45.596;5.258;2023-04-01T02:38:20;98259.47;;;13.15;52.75
64294;BME280;50636;45.596;5.258;2023-04-01T02:40:49;98251.31;;;13.05;52.63
64294;BME280;50636;45.596;5.258;2023-04-01T02:43:15;98248.34;;;13.13;52.80
64294;BME280;50636;45.596;5.258;2023-04-01T02:45:42;98249.31;;;13.30;51.03
64294;BME280;50636;45.596;5.258;2023-04-01T02:48:08;98233.25;;;13.20;50.86
64294;BME280;50636;45.596;5.258;2023-04-01T02:50:34;98232.22;;;13.21;50.61
64294;BME280;50636;45.596;5.258;2023-04-01T02:53:00;98237.03;;;13.24;49.39
64294;BME280;50636;45.596;5.258;2023-04-01T02:55:26;98248.00;;;13.21;49.60
64294;BME280;50636;45.596;5.258;2023-04-01T02:57:51;98251.22;;;13.23;49.32
64294;BME280;50636;45.596;5.258;2023-04-01T03:00:17;98255.13;;;13.21;50.19
64294;BME280;50636;45.596;5.258;2023-04-01T03:02:43;98263.00;;;13.09;50.83
64294;BME280;50636;45.596;5.258;2023-04-01T03:05:09;98265.38;;;12.87;51.21
64294;BME280;50636;45.596;5.258;2023-04-01T03:07:35;98252.97;;;12.75;52.02
64294;BME280;50636;45.596;5.258;2023-04-01T03:10:01;98263.97;;;12.72;51.79
64294;BME280;50636;45.596;5.258;2023-04-01T03:12:28;98252.31;;;12.80;51.31
64294;BME280;50636;45.596;5.258;2023-04-01T03:14:54;98255.75;;;12.81;50.90
64294;BME280;50636;45.596;5.258;2023-04-01T03:17:20;98252.19;;;12.87;50.88
64294;BME280;50636;45.596;5.258;2023-04-01T03:19:45;98251.66;;;12.96;50.36
64294;BME280;50636;45.596;5.258;2023-04-01T03:22:11;98251.44;;;12.98;49.75
64294;BME280;50636;45.596;5.258;2023-04-01T03:24:37;98263.13;;;13.02;50.65
64294;BME280;50636;45.596;5.258;2023-04-01T03:27:04;98250.38;;;12.99;50.42
64294;BME280;50636;45.596;5.258;2023-04-01T03:29:30;98265.38;;;12.87;50.34
64294;BME280;50636;45.596;5.258;2023-04-01T03:31:55;98250.78;;;12.72;49.70
64294;BME280;50636;45.596;5.258;2023-04-01T03:34:24;98259.50;;;12.73;49.67
64294;BME280;50636;45.596;5.258;2023-04-01T03:36:49;98261.09;;;12.74;49.88
64294;BME280;50636;45.596;5.258;2023-04-01T03:39:16;98269.22;;;12.72;49.50
64294;BME280;50636;45.596;5.258;2023-04-01T03:41:44;98256.84;;;12.73;49.40
64294;BME280;50636;45.596;5.258;2023-04-01T03:44:11;98251.47;;;12.79;49.07
64294;BME280;50636;45.596;5.258;2023-04-01T03:46:37;98254.63;;;12.88;48.59
64294;BME280;50636;45.596;5.258;2023-04-01T03:49:06;98250.16;;;12.89;48.66
64294;BME280;50636;45.596;5.258;2023-04-01T03:51:41;98256.44;;;12.99;48.09
64294;BME280;50636;45.596;5.258;2023-04-01T03:54:08;98243.63;;;12.91;48.42
64294;BME280;50636;45.596;5.258;2023-04-01T03:56:34;98240.88;;;12.86;48.60
64294;BME280;50636;45.596;5.258;2023-04-01T03:59:03;98244.16;;;12.82;48.30
64294;BME280;50636;45.596;5.258;2023-04-01T04:01:29;98252.63;;;12.72;48.83
64294;BME280;50636;45.596;5.258;2023-04-01T04:03:55;98244.38;;;12.68;48.58
64294;BME280;50636;45.596;5.258;2023-04-01T04:06:25;98247.69;;;12.64;49.23
64294;BME280;50636;45.596;5.258;2023-04-01T04:08:51;98247.31;;;12.60;49.20
64294;BME280;50636;45.596;5.258;2023-04-01T04:11:17;98248.44;;;12.52;48.43
64294;BME280;50636;45.596;5.258;2023-04-01T04:13:43;98247.50;;;12.47;49.30
64294;BME280;50636;45.596;5.258;2023-04-01T04:16:10;98251.66;;;12.54;49.15
64294;BME280;50636;45.596;5.258;2023-04-01T04:18:36;98247.53;;;12.58;48.35
64294;BME280;50636;45.596;5.258;2023-04-01T04:21:03;98245.63;;;12.66;48.67
64294;BME280;50636;45.596;5.258;2023-04-01T04:23:29;98247.13;;;12.73;48.39
64294;BME280;50636;45.596;5.258;2023-04-01T04:26:03;98237.72;;;12.66;48.69
64294;BME280;50636;45.596;5.258;2023-04-01T04:28:29;98233.59;;;12.58;48.68
64294;BME280;50636;45.596;5.258;2023-04-01T04:30:55;98241.44;;;12.46;48.74
64294;BME280;50636;45.596;5.258;2023-04-01T04:33:22;98237.91;;;12.52;48.94
64294;BME280;50636;45.596;5.258;2023-04-01T04:35:48;98247.13;;;12.62;48.48
64294;BME280;50636;45.596;5.258;2023-04-01T04:38:14;98253.22;;;12.74;48.36
64294;BME280;50636;45.596;5.258;2023-04-01T04:40:41;98257.16;;;12.95;48.46
64294;BME280;50636;45.596;5.258;2023-04-01T04:43:07;98263.38;;;13.12;48.33
64294;BME280;50636;45.596;5.258;2023-04-01T04:45:35;98279.19;;;13.24;53.48
64294;BME280;50636;45.596;5.258;2023-04-01T04:48:01;98280.75;;;13.02;56.03
64294;BME280;50636;45.596;5.258;2023-04-01T04:50:26;98295.66;;;12.47;59.75
64294;BME280;50636;45.596;5.258;2023-04-01T04:52:52;98286.94;;;12.16;64.86
64294;BME280;50636;45.596;5.258;2023-04-01T04:55:17;98296.28;;;12.12;68.10
64294;BME280;50636;45.596;5.258;2023-04-01T04:57:43;98281.69;;;12.16;70.77
64294;BME280;50636;45.596;5.258;2023-04-01T05:00:09;98293.13;;;12.41;72.09
64294;BME280;50636;45.596;5.258;2023-04-01T05:02:35;98298.50;;;12.64;71.20
64294;BME280;50636;45.596;5.258;2023-04-01T05:05:01;98300.75;;;12.91;71.64
64294;BME280;50636;45.596;5.258;2023-04-01T05:07:27;98298.28;;;13.08;70.88
64294;BME280;50636;45.596;5.258;2023-04-01T05:09:52;98301.28;;;13.11;70.80
64294;BME280;50636;45.596;5.258;2023-04-01T05:12:18;98292.00;;;13.09;69.09
64294;BME280;50636;45.596;5.258;2023-04-01T05:14:44;98305.94;;;12.97;67.25
64294;BME280;50636;45.596;5.258;2023-04-01T05:17:13;98294.75;;;13.14;67.60
64294;BME280;50636;45.596;5.258;2023-04-01T05:19:39;98293.59;;;13.22;67.87
64294;BME280;50636;45.596;5.258;2023-04-01T05:22:05;98289.13;;;13.10;64.66
64294;BME280;50636;45.596;5.258;2023-04-01T05:24:31;98290.03;;;13.04;64.20
64294;BME280;50636;45.596;5.258;2023-04-01T05:26:57;98299.72;;;12.80;63.70
64294;BME280;50636;45.596;5.258;2023-04-01T05:29:24;98298.94;;;12.61;64.36
64294;BME280;50636;45.596;5.258;2023-04-01T05:31:49;98301.56;;;12.61;64.50
64294;BME280;50636;45.596;5.258;2023-04-01T05:34:16;98306.19;;;12.77;65.04
64294;BME280;50636;45.596;5.258;2023-04-01T05:36:43;98300.56;;;13.04;65.38
64294;BME280;50636;45.596;5.258;2023-04-01T05:39:10;98308.22;;;13.36;66.22
64294;BME280;50636;45.596;5.258;2023-04-01T05:41:36;98310.41;;;13.51;66.00
64294;BME280;50636;45.596;5.258;2023-04-01T05:44:05;98305.00;;;13.46;65.65
64294;BME280;50636;45.596;5.258;2023-04-01T05:46:32;98302.94;;;13.36;64.48
64294;BME280;50636;45.596;5.258;2023-04-01T05:48:57;98300.50;;;13.23;63.33
64294;BME280;50636;45.596;5.258;2023-04-01T05:51:23;98300.63;;;13.16;62.63
64294;BME280;50636;45.596;5.258;2023-04-01T05:53:49;98303.91;;;13.11;63.13
64294;BME280;50636;45.596;5.258;2023-04-01T05:56:15;98304.59;;;13.07;59.67
64294;BME280;50636;45.596;5.258;2023-04-01T05:58:40;98304.69;;;13.00;56.53
64294;BME280;50636;45.596;5.258;2023-04-01T06:01:11;98307.44;;;13.05;59.08
64294;BME280;50636;45.596;5.258;2023-04-01T06:03:37;98306.47;;;13.30;55.94
64294;BME280;50636;45.596;5.258;2023-04-01T06:06:03;98305.63;;;13.17;58.24
64294;BME280;50636;45.596;5.258;2023-04-01T06:08:32;98314.06;;;12.96;59.41
64294;BME280;50636;45.596;5.258;2023-04-01T06:21:45;98309.34;;;14.23;60.74
64294;BME280;50636;45.596;5.258;2023-04-01T06:35:51;98304.56;;;14.36;56.93
64294;BME280;50636;45.596;5.258;2023-04-01T06:39:03;98306.50;;;14.53;58.94
64294;BME280;50636;45.596;5.258;2023-04-01T06:42:08;98307.41;;;14.87;56.06
64294;BME280;50636;45.596;5.258;2023-04-01T06:54:49;98312.50;;;15.06;51.36
64294;BME280;50636;45.596;5.258;2023-04-01T06:59:47;98310.75;;;15.28;53.54
64294;BME280;50636;45.596;5.258;2023-04-01T07:04:53;98315.41;;;17.36;49.17
64294;BME280;50636;45.596;5.258;2023-04-01T07:07:32;98332.50;;;17.51;49.44
64294;BME280;50636;45.596;5.258;2023-04-01T07:10:04;98336.22;;;16.90;52.28
64294;BME280;50636;45.596;5.258;2023-04-01T07:15:20;98340.63;;;15.46;53.17
64294;BME280;50636;45.596;5.258;2023-04-01T07:17:51;98342.19;;;14.96;54.08
64294;BME280;50636;45.596;5.258;2023-04-01T07:20:28;98339.41;;;14.74;53.19
64294;BME280;50636;45.596;5.258;2023-04-01T07:23:04;98340.72;;;14.60;53.80
64294;BME280;50636;45.596;5.258;2023-04-01T07:25:36;98344.22;;;14.77;53.80
64294;BME280;50636;45.596;5.258;2023-04-01T07:28:06;98341.38;;;14.95;54.15
64294;BME280;50636;45.596;5.258;2023-04-01T07:33:54;98332.28;;;15.37;51.25
64294;BME280;50636;45.596;5.258;2023-04-01T07:47:21;98336.81;;;17.62;47.43
64294;BME280;50636;45.596;5.258;2023-04-01T07:52:44;98328.06;;;17.29;45.81
64294;BME280;50636;45.596;5.258;2023-04-01T07:58:27;98332.34;;;18.05;44.56
64294;BME280;50636;45.596;5.258;2023-04-01T08:10:17;98332.63;;;20.05;38.60
64294;BME280;50636;45.596;5.258;2023-04-01T08:13:23;98331.09;;;19.43;38.69
64294;BME280;50636;45.596;5.258;2023-04-01T08:16:02;98337.97;;;18.82;42.47
64294;BME280;50636;45.596;5.258;2023-04-01T08:18:47;98333.25;;;18.36;46.79
64294;BME280;50636;45.596;5.258;2023-04-01T08:21:35;98346.13;;;18.02;46.72
64294;BME280;50636;45.596;5.258;2023-04-01T08:27:05;98336.94;;;16.86;50.67
64294;BME280;50636;45.596;5.258;2023-04-01T08:29:42;98340.69;;;16.68;52.79
64294;BME280;50636;45.596;5.258;2023-04-01T08:32:13;98340.41;;;16.64;51.83
64294;BME280;50636;45.596;5.258;2023-04-01T08:34:44;98345.16;;;16.62;51.70
64294;BME280;50636;45.596;5.258;2023-04-01T08:37:17;98339.16;;;16.72;52.54
64294;BME280;50636;45.596;5.258;2023-04-01T08:39:46;98326.44;;;17.23;52.74
64294;BME280;50636;45.596;5.258;2023-04-01T08:42:29;98327.56;;;17.70;49.55
64294;BME280;50636;45.596;5.258;2023-04-01T08:51:14;98332.34;;;17.35;46.96
64294;BME280;50636;45.596;5.258;2023-04-01T08:56:41;98334.38;;;17.23;44.66
64294;BME280;50636;45.596;5.258;2023-04-01T08:59:27;98335.63;;;17.43;46.04
64294;BME280;50636;45.596;5.258;2023-04-01T09:02:13;98336.63;;;17.36;44.60
64294;BME280;50636;45.596;5.258;2023-04-01T09:15:42;98301.03;;;17.70;40.62
64294;BME280;50636;45.596;5.258;2023-04-01T09:21:10;98313.25;;;18.13;39.88
64294;BME280;50636;45.596;5.258;2023-04-01T09:26:49;98297.97;;;18.46;39.31
64294;BME280;50636;45.596;5.258;2023-04-01T09:32:25;98309.38;;;18.47;38.90
64294;BME280;50636;45.596;5.258;2023-04-01T09:38:03;98315.59;;;18.05;45.01
64294;BME280;50636;45.596;5.258;2023-04-01T09:59:56;98347.53;;;16.64;57.83
64294;BME280;50636;45.596;5.258;2023-04-01T10:19:02;98327.03;;;18.05;58.97
64294;BME280;50636;45.596;5.258;2023-04-01T10:25:02;98314.06;;;19.03;56.54
64294;BME280;50636;45.596;5.258;2023-04-01T10:46:35;98277.22;;;18.38;47.26
64294;BME280;50636;45.596;5.258;2023-04-01T11:10:54;98209.28;;;25.38;28.86
64294;BME280;50636;45.596;5.258;2023-04-01T11:13:38;98208.97;;;23.71;30.81
64294;BME280;50636;45.596;5.258;2023-04-01T11:29:59;98197.69;;;21.86;33.39
64294;BME280;50636;45.596;5.258;2023-04-01T11:32:57;98199.31;;;21.63;33.54
64294;BME280;50636;45.596;5.258;2023-04-01T11:35:33;98201.69;;;21.35;33.94
64294;BME280;50636;45.596;5.258;2023-04-01T11:40:52;98187.94;;;20.60;37.69
64294;BME280;50636;45.596;5.258;2023-04-01T11:46:11;98183.22;;;21.68;46.01
64294;BME280;50636;45.596;5.258;2023-04-01T11:51:40;98163.22;;;23.68;39.79
64294;BME280;50636;45.596;5.258;2023-04-01T11:54:24;98161.16;;;24.97;36.29
64294;BME280;50636;45.596;5.258;2023-04-01T12:00:22;98148.09;;;26.54;29.66
64294;BME280;50636;45.596;5.258;2023-04-01T12:05:52;98154.28;;;25.93;28.36
64294;BME280;50636;45.596;5.258;2023-04-01T12:11:28;98150.03;;;25.92;28.75
64294;BME280;50636;45.596;5.258;2023-04-01T12:16:38;98136.78;;;24.39;29.55
64294;BME280;50636;45.596;5.258;2023-04-01T12:19:15;98126.34;;;23.65;28.83
64294;BME280;50636;45.596;5.258;2023-04-01T12:21:55;98128.38;;;22.52;30.77
64294;BME280;50636;45.596;5.258;2023-04-01T12:27:46;98114.75;;;21.29;32.38
64294;BME280;50636;45.596;5.258;2023-04-01T12:35:27;98105.91;;;19.57;35.90
64294;BME280;50636;45.596;5.258;2023-04-01T12:40:51;98102.72;;;19.60;36.15
64294;BME280;50636;45.596;5.258;2023-04-01T12:57:44;98094.69;;;18.39;40.82
64294;BME280;50636;45.596;5.258;2023-04-01T13:00:35;98086.09;;;17.80;43.33
64294;BME280;50636;45.596;5.258;2023-04-01T13:06:45;98092.00;;;16.44;49.22
64294;BME280;50636;45.596;5.258;2023-04-01T13:09:29;98089.25;;;16.66;51.76
64294;BME280;50636;45.596;5.258;2023-04-01T13:12:36;98091.22;;;16.81;55.26
64294;BME280;50636;45.596;5.258;2023-04-01T13:25:36;98063.03;;;18.73;52.22
64294;BME280;50636;45.596;5.258;2023-04-01T13:33:27;98052.88;;;20.79;40.18
64294;BME280;50636;45.596;5.258;2023-04-01T13:36:23;98050.81;;;20.71;38.28
64294;BME280;50636;45.596;5.258;2023-04-01T13:56:20;98033.31;;;17.89;39.13
64294;BME280;50636;45.596;5.258;2023-04-01T13:59:25;98017.56;;;17.56;39.26
64294;BME280;50636;45.596;5.258;2023-04-01T14:02:34;98033.97;;;17.38;40.59
64294;BME280;50636;45.596;5.258;2023-04-01T14:16:14;97999.47;;;16.80;43.18
64294;BME280;50636;45.596;5.258;2023-04-01T14:21:58;98025.31;;;16.52;44.64
64294;BME280;50636;45.596;5.258;2023-04-01T14:24:52;98012.41;;;16.66;43.67
64294;BME280;50636;45.596;5.258;2023-04-01T14:30:51;98023.88;;;16.40;43.20
64294;BME280;50636;45.596;5.258;2023-04-01T14:44:11;98026.44;;;15.92;44.43
64294;BME280;50636;45.596;5.258;2023-04-01T14:52:36;98107.19;;;16.00;44.73
64294;BME280;50636;45.596;5.258;2023-04-01T14:55:33;98081.44;;;16.17;42.61
64294;BME280;50636;45.596;5.258;2023-04-01T14:58:14;98111.13;;;15.48;43.48
64294;BME280;50636;45.596;5.258;2023-04-01T15:00:50;98137.63;;;14.75;49.12
64294;BME280;50636;45.596;5.258;2023-04-01T15:05:52;98150.66;;;14.36;58.75
64294;BME280;50636;45.596;5.258;2023-04-01T15:08:51;98150.03;;;14.00;62.83
64294;BME280;50636;45.596;5.258;2023-04-01T15:23:17;98154.00;;;11.84;80.81
64294;BME280;50636;45.596;5.258;2023-04-01T15:37:20;98154.00;;;11.47;86.93
64294;BME280;50636;45.596;5.258;2023-04-01T15:40:30;98152.81;;;11.24;88.28
64294;BME280;50636;45.596;5.258;2023-04-01T15:54:27;98155.44;;;11.06;91.49
64294;BME280;50636;45.596;5.258;2023-04-01T16:05:35;98152.00;;;10.80;91.80
64294;BME280;50636;45.596;5.258;2023-04-01T16:14:04;98148.72;;;10.28;89.35
64294;BME280;50636;45.596;5.258;2023-04-01T16:19:30;98141.47;;;10.30;89.85
64294;BME280;50636;45.596;5.258;2023-04-01T16:22:19;98140.97;;;10.46;91.19
64294;BME280;50636;45.596;5.258;2023-04-01T16:24:56;98137.91;;;10.74;91.72
64294;BME280;50636;45.596;5.258;2023-04-01T16:27:33;98140.53;;;10.99;92.43
64294;BME280;50636;45.596;5.258;2023-04-01T16:31:12;98137.91;;;10.99;90.52
64294;BME280;50636;45.596;5.258;2023-04-01T16:38:42;98138.25;;;10.34;92.27
64294;BME280;50636;45.596;5.258;2023-04-01T16:41:24;98141.88;;;10.33;94.26
64294;BME280;50636;45.596;5.258;2023-04-01T16:44:18;98153.94;;;10.66;96.04
64294;BME280;50636;45.596;5.258;2023-04-01T16:47:15;98159.13;;;10.98;97.42
64294;BME280;50636;45.596;5.258;2023-04-01T16:49:53;98160.03;;;11.29;98.04
64294;BME280;50636;45.596;5.258;2023-04-01T16:52:58;98171.41;;;11.23;96.30
64294;BME280;50636;45.596;5.258;2023-04-01T16:55:35;98167.38;;;11.02;96.00
64294;BME280;50636;45.596;5.258;2023-04-01T16:58:01;98164.72;;;10.83;94.06
64294;BME280;50636;45.596;5.258;2023-04-01T17:00:40;98167.38;;;10.51;93.82
64294;BME280;50636;45.596;5.258;2023-04-01T17:03:25;98168.41;;;10.50;95.57
64294;BME280;50636;45.596;5.258;2023-04-01T17:06:17;98167.53;;;10.18;94.41
64294;BME280;50636;45.596;5.258;2023-04-01T17:12:10;98165.50;;;9.82;97.04
64294;BME280;50636;45.596;5.258;2023-04-01T17:15:02;98161.78;;;10.03;98.60
64294;BME280;50636;45.596;5.258;2023-04-01T17:17:37;98148.59;;;10.16;98.88
64294;BME280;50636;45.596;5.258;2023-04-01T17:20:40;98148.13;;;10.26;98.47
64294;BME280;50636;45.596;5.258;2023-04-01T17:25:48;98148.38;;;10.24;98.45
64294;BME280;50636;45.596;5.258;2023-04-01T17:34:00;98163.78;;;10.07;96.89
64294;BME280;50636;45.596;5.258;2023-04-01T17:42:33;98160.00;;;9.90;96.85
64294;BME280;50636;45.596;5.258;2023-04-01T17:48:16;98161.84;;;9.89;96.62
64294;BME280;50636;45.596;5.258;2023-04-01T17:51:05;98155.78;;;10.27;98.43
64294;BME280;50636;45.596;5.258;2023-04-01T17:53:52;98164.16;;;10.49;98.22
64294;BME280;50636;45.596;5.258;2023-04-01T17:56:25;98159.31;;;10.46;97.70
64294;BME280;50636;45.596;5.258;2023-04-01T17:59:10;98167.88;;;10.35;97.94
64294;BME280;50636;45.596;5.258;2023-04-01T18:01:45;98169.81;;;10.08;96.67
64294;BME280;50636;45.596;5.258;2023-04-01T18:10:05;98176.53;;;10.67;96.23
64294;BME280;50636;45.596;5.258;2023-04-01T18:20:46;98177.09;;;10.44;94.69
64294;BME280;50636;45.596;5.258;2023-04-01T18:23:41;98178.50;;;10.47;94.05
64294;BME280;50636;45.596;5.258;2023-04-01T18:26:34;98181.59;;;10.37;93.21
64294;BME280;50636;45.596;5.258;2023-04-01T18:31:48;98186.50;;;10.58;92.21
64294;BME280;50636;45.596;5.258;2023-04-01T18:37:42;98198.47;;;11.05;91.80
64294;BME280;50636;45.596;5.258;2023-04-01T18:40:17;98195.63;;;11.06;90.35
64294;BME280;50636;45.596;5.258;2023-04-01T18:50:55;98207.25;;;11.17;89.20
64294;BME280;50636;45.596;5.258;2023-04-01T18:53:37;98211.88;;;11.40;88.37
64294;BME280;50636;45.596;5.258;2023-04-01T18:56:15;98207.38;;;11.66;88.03
64294;BME280;50636;45.596;5.258;2023-04-01T19:01:38;98203.72;;;11.85;85.26
64294;BME280;50636;45.596;5.258;2023-04-01T19:06:58;98207.34;;;12.21;85.92
64294;BME280;50636;45.596;5.258;2023-04-01T19:09:43;98213.19;;;12.23;83.95
64294;BME280;50636;45.596;5.258;2023-04-01T19:18:08;98219.47;;;11.92;82.71
64294;BME280;50636;45.596;5.258;2023-04-01T19:20:51;98216.72;;;11.80;80.90
64294;BME280;50636;45.596;5.258;2023-04-01T19:23:47;98221.03;;;11.74;81.24
64294;BME280;50636;45.596;5.258;2023-04-01T19:26:40;98222.31;;;11.47;81.06
64294;BME280;50636;45.596;5.258;2023-04-01T19:37:22;98233.28;;;11.44;86.27
64294;BME280;50636;45.596;5.258;2023-04-01T19:40:01;98233.84;;;11.46;85.19
64294;BME280;50636;45.596;5.258;2023-04-01T19:51:13;98263.97;;;11.68;86.67
64294;BME280;50636;45.596;5.258;2023-04-01T19:54:03;98273.88;;;11.66;89.44
64294;BME280;50636;45.596;5.258;2023-04-01T19:56:49;98271.97;;;11.55;91.76
64294;BME280;50636;45.596;5.258;2023-04-01T20:04:49;98285.72;;;11.07;95.58
64294;BME280;50636;45.596;5.258;2023-04-01T20:07:35;98286.25;;;10.84;96.00
64294;BME280;50636;45.596;5.258;2023-04-01T20:10:27;98285.16;;;10.66;97.38
64294;BME280;50636;45.596;5.258;2023-04-01T20:15:42;98286.66;;;10.49;98.77
64294;BME280;50636;45.596;5.258;2023-04-01T20:18:26;98285.19;;;10.59;100.00
64294;BME280;50636;45.596;5.258;2023-04-01T20:21:03;98290.84;;;10.63;100.00
64294;BME280;50636;45.596;5.258;2023-04-01T20:23:59;98282.75;;;10.65;100.00
64294;BME280;50636;45.596;5.258;2023-04-01T20:26:33;98288.41;;;10.62;100.00
64294;BME280;50636;45.596;5.258;2023-04-01T20:35:17;98283.66;;;10.45;100.00
64294;BME280;50636;45.596;5.258;2023-04-01T20:40:51;98283.91;;;10.37;100.00
64294;BME280;50636;45.596;5.258;2023-04-01T20:43:44;98280.28;;;10.31;100.00
64294;BME280;50636;45.596;5.258;2023-04-01T20:46:16;98287.75;;;10.34;100.00
64294;BME280;50636;45.596;5.258;2023-04-01T21:14:01;98271.44;;;10.19;99.39
64294;BME280;50636;45.596;5.258;2023-04-01T21:22:54;98268.94;;;10.37;100.00
64294;BME280;50636;45.596;5.258;2023-04-01T21:33:59;98285.81;;;10.93;100.00
64294;BME280;50636;45.596;5.258;2023-04-01T21:39:50;98282.38;;;11.18;100.00
64294;BME280;50636;45.596;5.258;2023-04-01T21:48:29;98282.78;;;11.22;100.00
64294;BME280;50636;45.596;5.258;2023-04-01T22:00:46;98287.44;;;11.19;100.00
64294;BME280;50636;45.596;5.258;2023-04-01T22:05:37;98298.59;;;11.40;100.00
64294;BME280;50636;45.596;5.258;2023-04-01T22:08:32;98294.59;;;11.56;100.00
64294;BME280;50636;45.596;5.258;2023-04-01T22:11:08;98290.81;;;11.52;100.00
64294;BME280;50636;45.596;5.258;2023-04-01T22:14:23;98293.75;;;11.62;100.00
64294;BME280;50636;45.596;5.258;2023-04-01T22:16:47;98288.78;;;11.72;100.00
64294;BME280;50636;45.596;5.258;2023-04-01T22:19:34;98293.84;;;11.74;100.00
64294;BME280;50636;45.596;5.258;2023-04-01T22:22:48;98297.13;;;11.69;100.00
64294;BME280;50636;45.596;5.258;2023-04-01T22:25:17;98292.19;;;11.54;100.00
64294;BME280;50636;45.596;5.258;2023-04-01T22:27:59;98290.75;;;11.33;100.00
64294;BME280;50636;45.596;5.258;2023-04-01T22:30:36;98296.44;;;11.30;100.00
64294;BME280;50636;45.596;5.258;2023-04-01T22:34:00;98298.19;;;11.36;100.00
64294;BME280;50636;45.596;5.258;2023-04-01T22:47:33;98300.63;;;11.13;100.00
64294;BME280;50636;45.596;5.258;2023-04-01T22:50:45;98293.41;;;11.02;100.00
64294;BME280;50636;45.596;5.258;2023-04-01T22:55:40;98303.06;;;11.08;100.00
64294;BME280;50636;45.596;5.258;2023-04-01T22:58:13;98298.66;;;11.02;100.00
64294;BME280;50636;45.596;5.258;2023-04-01T23:00:50;98296.63;;;11.04;100.00
64294;BME280;50636;45.596;5.258;2023-04-01T23:03:28;98292.56;;;11.08;100.00